createdAt,value
2023-02-18T00:02:13.825Z,5.6
2023-02-18T00:05:13.820Z,5.6
2023-02-18T00:08:13.818Z,5.6
2023-02-18T00:11:13.822Z,5.6
2023-02-18T00:14:13.834Z,5.6
2023-02-18T00:17:13.850Z,5.6
2023-02-18T00:20:13.829Z,5.6
2023-02-18T00:23:13.839Z,5.6
2023-02-18T00:26:13.839Z,5.6
2023-02-18T00:29:13.855Z,5.6
2023-02-18T00:32:13.846Z,5.6
2023-02-18T00:35:13.871Z,5.6
2023-02-18T00:38:13.855Z,5.6
2023-02-18T00:41:13.854Z,5.6
2023-02-18T00:44:13.860Z,5.6
2023-02-18T00:47:13.869Z,5.6
2023-02-18T00:50:13.862Z,5.6
2023-02-18T00:53:13.921Z,5.6
2023-02-18T00:56:13.882Z,5.6
2023-02-18T00:59:13.873Z,5.6
2023-02-18T01:02:13.881Z,5.6
2023-02-18T01:05:13.889Z,5.6
2023-02-18T01:08:13.893Z,5.5
2023-02-18T01:11:14.022Z,5.5
2023-02-18T01:14:13.904Z,5.5
2023-02-18T01:17:13.906Z,5.5
2023-02-18T01:20:13.914Z,5.5
2023-02-18T01:23:13.913Z,5.5
2023-02-18T01:26:13.939Z,5.5
2023-02-18T01:29:14.043Z,5.5
2023-02-18T01:32:14.107Z,5.5
2023-02-18T01:35:13.935Z,5.5
2023-02-18T01:38:13.927Z,5.5
2023-02-18T01:41:13.936Z,5.5
2023-02-18T01:44:13.945Z,5.5
2023-02-18T01:47:13.962Z,5.5
2023-02-18T01:50:13.950Z,5.5
2023-02-18T01:53:13.943Z,5.5
2023-02-18T01:56:13.941Z,5.5
2023-02-18T01:59:13.947Z,5.5
2023-02-18T02:02:13.990Z,5.5
2023-02-18T02:05:13.975Z,5.5
2023-02-18T02:08:13.957Z,5.5
2023-02-18T02:11:13.960Z,5.5
2023-02-18T02:14:13.968Z,5.5
2023-02-18T02:17:13.984Z,5.5
2023-02-18T02:20:13.988Z,5.5
2023-02-18T02:23:14.006Z,5.4
2023-02-18T02:26:13.984Z,5.5
2023-02-18T02:29:13.993Z,5.5
2023-02-18T02:32:13.990Z,5.5
2023-02-18T02:35:13.993Z,5.4
2023-02-18T02:38:14.014Z,5.4
2023-02-18T02:41:14.023Z,5.4
2023-02-18T02:44:14.004Z,5.4
2023-02-18T02:47:14.004Z,5.4
2023-02-18T02:50:14.008Z,5.4
2023-02-18T02:53:14.012Z,5.4
2023-02-18T02:56:14.020Z,5.4
2023-02-18T02:59:14.048Z,5.4
2023-02-18T03:02:14.026Z,5.4
2023-02-18T03:05:14.035Z,5.4
2023-02-18T03:08:14.031Z,5.4
2023-02-18T03:11:14.033Z,5.4
2023-02-18T03:14:14.038Z,5.4
2023-02-18T03:17:14.074Z,5.4
2023-02-18T03:20:14.041Z,5.4
2023-02-18T03:23:14.043Z,5.4
2023-02-18T03:26:14.049Z,5.4
2023-02-18T03:29:14.046Z,5.4
2023-02-18T03:32:14.119Z,5.4
2023-02-18T03:35:14.152Z,5.4
2023-02-18T03:38:14.133Z,5.4
2023-02-18T03:41:14.070Z,5.4
2023-02-18T03:44:14.056Z,5.4
2023-02-18T03:47:14.069Z,5.4
2023-02-18T03:50:14.074Z,5.4
2023-02-18T03:53:14.096Z,5.4
2023-02-18T03:56:14.076Z,5.4
2023-02-18T03:59:14.081Z,5.4
2023-02-18T04:02:14.093Z,5.4
2023-02-18T04:05:14.084Z,5.4
2023-02-18T04:08:14.104Z,5.4
2023-02-18T04:11:14.224Z,5.4
2023-02-18T04:14:14.111Z,5.4
2023-02-18T04:17:14.121Z,5.4
2023-02-18T04:20:14.123Z,5.4
2023-02-18T04:23:14.128Z,5.4
2023-02-18T04:26:14.136Z,5.4
2023-02-18T04:29:14.168Z,5.4
2023-02-18T04:32:14.154Z,5.4
2023-02-18T04:35:14.152Z,5.4
2023-02-18T04:38:14.160Z,5.4
2023-02-18T04:41:14.169Z,5.4
2023-02-18T04:44:14.170Z,5.4
2023-02-18T04:47:14.212Z,5.4
2023-02-18T04:50:14.189Z,5.4
2023-02-18T04:53:14.197Z,5.4
2023-02-18T04:56:14.198Z,5.4
2023-02-18T04:59:14.215Z,5.4
2023-02-18T05:02:14.229Z,5.4
2023-02-18T05:05:14.348Z,5.4
2023-02-18T05:08:14.509Z,5.3
2023-02-18T05:11:14.236Z,5.4
2023-02-18T05:14:14.257Z,5.4
2023-02-18T05:17:14.267Z,5.3
2023-02-18T05:20:14.262Z,5.3
2023-02-18T05:23:14.293Z,5.3
2023-02-18T05:26:14.287Z,5.3
2023-02-18T05:29:14.290Z,5.3
2023-02-18T05:32:14.298Z,5.3
2023-02-18T05:35:14.297Z,5.3
2023-02-18T05:38:14.315Z,5.3
2023-02-18T05:41:14.338Z,5.3
2023-02-18T05:44:14.320Z,5.3
2023-02-18T05:47:14.338Z,5.3
2023-02-18T05:50:14.337Z,5.3
2023-02-18T05:53:16.119Z,5.3
2023-02-18T05:56:14.355Z,5.3
2023-02-18T05:59:14.463Z,5.3
2023-02-18T06:02:14.370Z,5.3
2023-02-18T06:05:14.366Z,5.3
2023-02-18T06:08:14.376Z,5.3
2023-02-18T06:11:14.407Z,5.3
2023-02-18T06:14:14.392Z,5.3
2023-02-18T06:17:14.437Z,5.3
2023-02-18T06:20:14.407Z,5.3
2023-02-18T06:23:14.416Z,5.3
2023-02-18T06:26:14.433Z,5.3
2023-02-18T06:29:14.438Z,5.3
2023-02-18T06:32:14.614Z,5.3
2023-02-18T06:35:14.492Z,5.3
2023-02-18T06:38:14.461Z,5.3
2023-02-18T06:41:14.471Z,5.3
2023-02-18T06:44:14.480Z,5.3
2023-02-18T06:47:14.491Z,5.2
2023-02-18T06:50:14.488Z,5.3
2023-02-18T06:53:14.524Z,5.2
2023-02-18T06:56:14.507Z,5.3
2023-02-18T06:59:14.516Z,5.2
2023-02-18T07:02:14.541Z,5.2
2023-02-18T07:05:14.536Z,5.2
2023-02-18T07:08:14.549Z,5.2
2023-02-18T07:11:14.576Z,5.2
2023-02-18T07:14:14.562Z,5.2
2023-02-18T07:17:14.583Z,5.2
2023-02-18T07:20:14.580Z,5.2
2023-02-18T07:23:14.604Z,5.2
2023-02-18T07:26:14.611Z,5.2
2023-02-18T07:29:14.628Z,5.2
2023-02-18T07:32:14.671Z,5.2
2023-02-18T07:35:14.624Z,5.2
2023-02-18T07:38:14.631Z,5.2
2023-02-18T07:41:14.647Z,5.2
2023-02-18T07:44:14.654Z,5.2
2023-02-18T07:47:14.709Z,5.2
2023-02-18T07:50:14.681Z,5.2
2023-02-18T07:53:14.682Z,5.2
2023-02-18T07:56:14.692Z,5.2
2023-02-18T07:59:14.706Z,5.2
2023-02-18T08:02:14.777Z,5.2
2023-02-18T08:05:14.754Z,5.2
2023-02-18T08:08:14.729Z,5.2
2023-02-18T08:11:19.139Z,5.2
2023-02-18T08:14:14.751Z,5.2
2023-02-18T08:17:14.770Z,5.2
2023-02-18T08:20:15.069Z,5.2
2023-02-18T08:23:14.817Z,5.2
2023-02-18T08:26:14.794Z,5.2
2023-02-18T08:29:15.050Z,5.2
2023-02-18T08:32:14.836Z,5.2
2023-02-18T08:35:14.810Z,5.2
2023-02-18T08:38:14.843Z,5.2
2023-02-18T08:41:14.944Z,5.2
2023-02-18T08:44:14.821Z,5.2
2023-02-18T08:48:13.242Z,5.2
2023-02-18T08:50:14.833Z,5.2
2023-02-18T08:53:14.860Z,5.2
2023-02-18T08:56:14.854Z,5.2
2023-02-18T08:59:14.878Z,5.2
2023-02-18T09:02:14.870Z,5.2
2023-02-18T09:05:14.873Z,5.2
2023-02-18T09:08:14.876Z,5.2
2023-02-18T09:11:14.882Z,5.2
2023-02-18T09:14:14.887Z,5.2
2023-02-18T09:17:14.924Z,5.2
2023-02-18T09:20:14.896Z,5.2
2023-02-18T09:23:14.892Z,5.2
2023-02-18T09:26:14.901Z,5.2
2023-02-18T09:29:14.900Z,5.2
2023-02-18T09:32:22.586Z,5.2
2023-02-18T09:35:14.935Z,5.2
2023-02-18T09:38:14.912Z,5.2
2023-02-18T09:41:14.911Z,5.2
2023-02-18T09:44:14.918Z,5.2
2023-02-18T09:47:14.928Z,5.2
2023-02-18T09:50:14.924Z,5.2
2023-02-18T09:53:14.956Z,5.2
2023-02-18T09:56:14.934Z,5.2
2023-02-18T09:59:14.946Z,5.2
2023-02-18T10:02:14.964Z,5.2
2023-02-18T10:05:14.953Z,5.2
2023-02-18T10:08:14.965Z,5.2
2023-02-18T10:11:14.981Z,5.2
2023-02-18T10:14:14.963Z,5.2
2023-02-18T10:17:14.979Z,5.2
2023-02-18T10:20:14.967Z,5.2
2023-02-18T10:23:14.982Z,5.2
2023-02-18T10:26:14.977Z,5.2
2023-02-18T10:29:15.011Z,5.2
2023-02-18T10:32:14.996Z,5.2
2023-02-18T10:35:15.001Z,5.2
2023-02-18T10:38:15.000Z,5.2
2023-02-18T10:41:15.001Z,5.2
2023-02-18T10:44:15.027Z,5.2
2023-02-18T10:47:15.048Z,5.2
2023-02-18T10:50:15.027Z,5.2
2023-02-18T10:53:15.020Z,5.2
2023-02-18T10:56:15.052Z,5.2
2023-02-18T10:59:15.036Z,5.2
2023-02-18T11:02:15.036Z,5.2
2023-02-18T11:05:15.067Z,5.2
2023-02-18T11:08:15.040Z,5.2
2023-02-18T11:11:15.046Z,5.2
2023-02-18T11:14:15.057Z,5.2
2023-02-18T11:17:15.054Z,5.2
2023-02-18T11:20:15.059Z,5.2
2023-02-18T11:23:15.091Z,5.2
2023-02-18T11:26:15.063Z,5.2
2023-02-18T11:29:15.067Z,5.2
2023-02-18T11:32:15.076Z,5.2
2023-02-18T11:35:15.069Z,5.2
2023-02-18T11:38:15.075Z,5.2
2023-02-18T11:41:15.145Z,5.2
2023-02-18T11:44:15.086Z,5.2
2023-02-18T11:47:15.086Z,5.2
2023-02-18T11:50:15.145Z,5.2
2023-02-18T11:53:15.098Z,5.2
2023-02-18T11:56:15.111Z,5.2
2023-02-18T11:59:15.134Z,5.2
2023-02-18T12:02:15.138Z,5.2
2023-02-18T12:05:15.149Z,5.2
2023-02-18T12:08:15.133Z,5.2
2023-02-18T12:11:15.139Z,5.2
2023-02-18T12:14:15.146Z,5.2
2023-02-18T12:17:15.168Z,5.2
2023-02-18T12:20:15.145Z,5.2
2023-02-18T12:23:15.150Z,5.2
2023-02-18T12:26:15.150Z,5.2
2023-02-18T12:29:15.162Z,5.2
2023-02-18T12:32:15.192Z,5.2
2023-02-18T12:35:15.195Z,5.3
2023-02-18T12:38:15.180Z,5.2
2023-02-18T12:41:15.181Z,5.3
2023-02-18T12:44:15.190Z,5.3
2023-02-18T12:47:15.194Z,5.3
2023-02-18T12:50:15.193Z,5.3
2023-02-18T12:53:15.228Z,5.3
2023-02-18T12:56:15.203Z,5.3
2023-02-18T12:59:15.216Z,5.3
2023-02-18T13:02:15.218Z,5.3
2023-02-18T13:05:15.226Z,5.3
2023-02-18T13:08:15.231Z,5.3
2023-02-18T13:11:15.258Z,5.3
2023-02-18T13:14:15.240Z,5.3
2023-02-18T13:17:15.247Z,5.3
2023-02-18T13:20:15.248Z,5.3
2023-02-18T13:23:15.250Z,5.3
2023-02-18T13:26:15.264Z,5.3
2023-02-18T13:29:15.279Z,5.3
2023-02-18T13:32:15.264Z,5.4
2023-02-18T13:35:15.259Z,5.3
2023-02-18T13:38:15.270Z,5.4
2023-02-18T13:41:15.272Z,5.4
2023-02-18T13:44:15.274Z,5.4
2023-02-18T13:47:15.298Z,5.4
2023-02-18T13:50:15.286Z,5.4
2023-02-18T13:53:15.308Z,5.4
2023-02-18T13:56:15.301Z,5.4
2023-02-18T13:59:15.299Z,5.4
2023-02-18T14:02:15.431Z,5.4
2023-02-18T14:05:15.325Z,5.4
2023-02-18T14:08:15.314Z,5.4
2023-02-18T14:11:15.317Z,5.4
2023-02-18T14:14:15.323Z,5.4
2023-02-18T14:17:15.323Z,5.4
2023-02-18T14:20:15.331Z,5.4
2023-02-18T14:23:15.350Z,5.4
2023-02-18T14:26:15.351Z,5.4
2023-02-18T14:29:15.993Z,5.4
2023-02-18T14:32:15.486Z,5.4
2023-02-18T14:35:15.349Z,5.4
2023-02-18T14:38:15.352Z,5.4
2023-02-18T14:41:15.390Z,5.4
2023-02-18T14:44:15.383Z,5.4
2023-02-18T14:47:15.369Z,5.4
2023-02-18T14:50:15.378Z,5.4
2023-02-18T14:53:17.439Z,5.4
2023-02-18T14:56:15.384Z,5.4
2023-02-18T14:59:15.424Z,5.4
2023-02-18T15:02:15.396Z,5.4
2023-02-18T15:05:15.417Z,5.5
2023-02-18T15:08:15.417Z,5.5
2023-02-18T15:11:15.407Z,5.5
2023-02-18T15:14:15.413Z,5.5
2023-02-18T15:17:15.439Z,5.5
2023-02-18T15:20:15.447Z,5.5
2023-02-18T15:23:15.411Z,5.5
2023-02-18T15:26:15.435Z,5.5
2023-02-18T15:29:15.413Z,5.5
2023-02-18T15:32:15.495Z,5.5
2023-02-18T15:35:15.451Z,5.5
2023-02-18T15:38:15.425Z,5.5
2023-02-18T15:41:15.434Z,5.5
2023-02-18T15:44:15.475Z,5.6
2023-02-18T15:47:15.514Z,5.6
2023-02-18T15:50:15.506Z,5.6
2023-02-18T15:53:15.533Z,5.6
2023-02-18T15:56:15.514Z,5.6
2023-02-18T15:59:15.520Z,5.6
2023-02-18T16:02:15.536Z,5.6
2023-02-18T16:05:15.533Z,5.6
2023-02-18T16:08:15.539Z,5.6
2023-02-18T16:11:15.573Z,5.6
2023-02-18T16:14:15.536Z,5.6
2023-02-18T16:17:15.543Z,5.6
2023-02-18T16:20:15.544Z,5.6
2023-02-18T16:23:15.543Z,5.6
2023-02-18T16:26:15.540Z,5.6
2023-02-18T16:29:15.561Z,5.6
2023-02-18T16:32:15.616Z,5.6
2023-02-18T16:35:15.541Z,5.6
2023-02-18T16:38:15.544Z,5.6
2023-02-18T16:41:15.542Z,5.6
2023-02-18T16:44:15.548Z,5.6
2023-02-18T16:47:15.576Z,5.6
2023-02-18T16:50:15.560Z,5.6
2023-02-18T16:53:15.548Z,5.6
2023-02-18T16:56:15.550Z,5.6
2023-02-18T16:59:15.561Z,5.6
2023-02-18T17:02:15.552Z,5.6
2023-02-18T17:05:25.952Z,5.6
2023-02-18T17:08:15.565Z,5.6
2023-02-18T17:11:15.566Z,5.6
2023-02-18T17:14:15.565Z,5.6
2023-02-18T17:17:15.563Z,5.6
2023-02-18T17:20:15.574Z,5.6
2023-02-18T17:23:15.600Z,5.7
2023-02-18T17:26:15.574Z,5.7
2023-02-18T17:29:15.579Z,5.7
2023-02-18T17:32:15.594Z,5.7
2023-02-18T17:35:15.572Z,5.7
2023-02-18T17:38:15.589Z,5.7
2023-02-18T17:41:15.617Z,5.7
2023-02-18T17:44:15.583Z,5.7
2023-02-18T17:47:15.585Z,5.7
2023-02-18T17:50:15.579Z,5.7
2023-02-18T17:53:15.608Z,5.7
2023-02-18T17:56:15.587Z,5.7
2023-02-18T17:59:15.615Z,5.7
2023-02-18T18:02:15.616Z,5.7
2023-02-18T18:05:15.608Z,5.7
2023-02-18T18:08:15.623Z,5.7
2023-02-18T18:11:15.618Z,5.7
2023-02-18T18:14:15.630Z,5.7
2023-02-18T18:17:15.644Z,5.7
2023-02-18T18:20:15.634Z,5.7
2023-02-18T18:23:15.627Z,5.7
2023-02-18T18:26:15.668Z,5.7
2023-02-18T18:29:15.734Z,5.7
2023-02-18T18:32:15.723Z,5.7
2023-02-18T18:35:15.785Z,5.7
2023-02-18T18:38:15.706Z,5.7
2023-02-18T18:41:15.712Z,5.7
2023-02-18T18:44:15.719Z,5.7
2023-02-18T18:47:15.738Z,5.7
2023-02-18T18:50:15.773Z,5.7
2023-02-18T18:53:15.829Z,5.7
2023-02-18T18:56:15.764Z,5.7
2023-02-18T18:59:15.688Z,5.7
2023-02-18T19:02:15.691Z,5.7
2023-02-18T19:05:15.692Z,5.7
2023-02-18T19:08:15.689Z,5.8
2023-02-18T19:11:15.717Z,5.8
2023-02-18T19:14:15.705Z,5.7
2023-02-18T19:17:15.706Z,5.8
2023-02-18T19:20:15.707Z,5.8
2023-02-18T19:23:15.703Z,5.8
2023-02-18T19:26:15.708Z,5.8
2023-02-18T19:29:15.758Z,5.8
2023-02-18T19:32:15.723Z,5.8
2023-02-18T19:35:15.721Z,5.8
2023-02-18T19:38:15.731Z,5.8
2023-02-18T19:41:15.734Z,5.8
2023-02-18T19:44:15.739Z,5.8
2023-02-18T19:47:15.783Z,5.8
2023-02-18T19:50:15.752Z,5.8
2023-02-18T19:53:15.748Z,5.8
2023-02-18T19:56:15.754Z,5.8
2023-02-18T19:59:15.759Z,5.8
2023-02-18T20:02:15.758Z,5.8
2023-02-18T20:05:15.797Z,5.8
2023-02-18T20:08:15.777Z,5.8
2023-02-18T20:11:15.785Z,5.8
2023-02-18T20:14:16.376Z,5.8
2023-02-18T20:17:15.804Z,5.9
2023-02-18T20:20:15.796Z,5.9
2023-02-18T20:23:15.826Z,5.8
2023-02-18T20:26:15.813Z,5.9
2023-02-18T20:29:15.820Z,5.8
2023-02-18T20:32:17.739Z,5.9
2023-02-18T20:35:16.101Z,5.8
2023-02-18T20:38:16.987Z,5.9
2023-02-18T20:41:15.854Z,5.9
2023-02-18T20:44:15.834Z,5.9
2023-02-18T20:47:15.838Z,5.9
2023-02-18T20:50:15.861Z,5.9
2023-02-18T20:53:15.843Z,5.9
2023-02-18T20:56:15.853Z,5.9
2023-02-18T20:59:15.898Z,5.9
2023-02-18T21:02:15.861Z,5.9
2023-02-18T21:05:15.868Z,5.9
2023-02-18T21:08:15.871Z,5.9
2023-02-18T21:11:15.892Z,5.9
2023-02-18T21:14:15.886Z,5.9
2023-02-18T21:17:15.915Z,5.9
2023-02-18T21:20:15.894Z,5.9
2023-02-18T21:23:15.903Z,5.9
2023-02-18T21:26:15.891Z,5.9
2023-02-18T21:29:17.151Z,5.9
2023-02-18T21:32:16.000Z,5.9
2023-02-18T21:35:15.928Z,5.9
2023-02-18T21:38:15.907Z,5.9
2023-02-18T21:41:15.916Z,5.9
2023-02-18T21:44:15.914Z,5.9
2023-02-18T21:47:15.928Z,5.9
2023-02-18T21:50:15.924Z,5.9
2023-02-18T21:53:15.970Z,5.9
2023-02-18T21:56:15.937Z,5.9
2023-02-18T21:59:15.945Z,5.9
2023-02-18T22:02:15.985Z,5.9
2023-02-18T22:05:15.963Z,5.9
2023-02-18T22:08:15.971Z,5.9
2023-02-18T22:11:15.996Z,5.9
2023-02-18T22:14:15.983Z,5.9
2023-02-18T22:17:15.983Z,5.9
2023-02-18T22:20:15.993Z,5.9
2023-02-18T22:23:15.993Z,5.9
2023-02-18T22:26:16.001Z,5.9
2023-02-18T22:29:16.040Z,5.9
2023-02-18T22:32:16.113Z,5.9
2023-02-18T22:35:16.899Z,5.9
2023-02-18T22:38:16.034Z,5.9
2023-02-18T22:41:16.005Z,5.9
2023-02-18T22:44:16.014Z,5.9
2023-02-18T22:47:16.038Z,5.9
2023-02-18T22:50:16.012Z,5.9
2023-02-18T22:53:16.019Z,5.9
2023-02-18T22:56:16.025Z,5.9
2023-02-18T22:59:16.027Z,5.9
2023-02-18T23:02:16.038Z,5.9
2023-02-18T23:05:16.062Z,5.9
2023-02-18T23:08:16.040Z,5.9
2023-02-18T23:11:16.046Z,5.9
2023-02-18T23:14:16.052Z,5.9
2023-02-18T23:17:16.057Z,5.9
2023-02-18T23:20:16.065Z,5.9
2023-02-18T23:23:16.085Z,5.9
2023-02-18T23:26:16.090Z,5.9
2023-02-18T23:29:16.073Z,5.9
2023-02-18T23:32:16.089Z,5.9
2023-02-18T23:35:16.083Z,5.9
2023-02-18T23:38:16.093Z,5.9
2023-02-18T23:41:16.122Z,5.9
2023-02-18T23:44:16.108Z,5.9
2023-02-18T23:47:16.115Z,5.9
2023-02-18T23:50:16.124Z,5.9
2023-02-18T23:53:16.128Z,5.9
2023-02-18T23:56:16.125Z,5.9
2023-02-18T23:59:16.162Z,5.9
